Time;durP1;ratioP1;P1;durP2;ratioP2;P2;SDS_P1;SDS_P2;PMS_P1;PMS_P2;Temp;Humidity;BMP_temperature;BMP_pressure;BME280_temperature;BME280_humidity;BME280_pressure;Samples;Min_cycle;Max_cycle;Signal;HPM_P1;HPM_P2
2022/12/02 00:00:52;;;;;;;69.90;34.70;;;5.40;99.90;;;;;;5072321;28;20146;-71
2022/12/02 00:03:20;;;;;;;68.85;34.83;;;5.60;99.90;;;;;;5072443;28;20119;-71
2022/12/02 00:05:51;;;;;;;69.78;36.40;;;5.60;99.90;;;;;;5073018;28;20458;-71
2022/12/02 00:08:27;;;;;;;74.90;36.80;;;5.40;99.90;;;;;;5076664;28;20024;-71
2022/12/02 00:10:55;;;;;;;69.70;36.47;;;5.40;99.90;;;;;;5076463;28;20037;-71
2022/12/02 00:13:28;;;;;;;75.88;37.65;;;5.30;99.90;;;;;;5062271;28;20358;-70
2022/12/02 00:16:02;;;;;;;79.35;38.28;;;5.40;99.90;;;;;;5076083;28;20028;-71
2022/12/02 00:18:28;;;;;;;67.30;36.67;;;5.40;99.90;;;;;;5062280;28;20035;-71
2022/12/02 00:20:55;;;;;;;76.40;39.47;;;5.50;99.90;;;;;;5076257;28;20032;-71
2022/12/02 00:23:21;;;;;;;76.53;38.15;;;5.60;99.90;;;;;;5076227;28;20102;-71
2022/12/02 00:25:49;;;;;;;74.07;37.72;;;5.40;99.90;;;;;;5076207;28;20035;-72
2022/12/02 00:28:16;;;;;;;71.28;37.20;;;5.10;99.90;;;;;;5074471;28;20047;-73
2022/12/02 00:30:42;;;;;;;77.68;36.97;;;4.90;99.90;;;;;;5074752;28;20107;-72
2022/12/02 00:33:08;;;;;;;80.70;39.65;;;4.60;99.90;;;;;;5076020;28;20031;-71
2022/12/02 00:35:33;;;;;;;77.40;38.13;;;4.90;99.90;;;;;;5075905;28;20498;-71
2022/12/02 00:37:59;;;;;;;82.03;41.45;;;5.00;99.90;;;;;;5075802;28;20053;-71
2022/12/02 00:40:25;;;;;;;74.65;39.35;;;5.10;99.90;;;;;;5075694;28;20052;-71
2022/12/02 00:42:52;;;;;;;74.68;38.13;;;5.00;99.90;;;;;;5075253;28;20028;-71
2022/12/02 00:48:02;;;;;;;75.40;39.22;;;5.20;99.90;;;;;;5061965;28;20033;-71
2022/12/02 00:50:28;;;;;;;74.10;38.88;;;5.40;99.90;;;;;;5075775;28;20041;-71
2022/12/02 00:52:54;;;;;;;82.65;39.50;;;5.40;99.90;;;;;;5075528;28;20464;-73
2022/12/02 00:55:21;;;;;;;77.25;37.80;;;5.00;99.90;;;;;;5074139;28;20373;-73
2022/12/02 00:57:47;;;;;;;73.88;37.67;;;4.70;99.90;;;;;;5074082;28;20023;-73
2022/12/02 01:00:13;;;;;;;81.40;38.70;;;4.90;99.90;;;;;;5075579;28;20024;-73
2022/12/02 01:02:39;;;;;;;78.20;40.47;;;5.20;99.90;;;;;;5075314;28;20434;-72
2022/12/02 01:05:06;;;;;;;76.65;37.05;;;5.20;99.90;;;;;;5075323;28;20040;-72
2022/12/02 01:07:31;;;;;;;76.40;39.78;;;4.90;99.90;;;;;;5075381;28;20457;-72
2022/12/02 01:09:58;;;;;;;77.93;37.00;;;5.10;99.90;;;;;;5057716;28;20082;-72
2022/12/02 01:12:24;;;;;;;78.32;39.97;;;5.10;99.90;;;;;;5073688;28;20492;-72
2022/12/02 01:14:50;;;;;;;82.15;38.28;;;5.20;99.90;;;;;;5075138;28;20028;-72
2022/12/02 01:17:16;;;;;;;77.60;40.45;;;5.50;99.90;;;;;;5073298;28;20031;-72
2022/12/02 01:19:42;;;;;;;85.18;41.40;;;5.70;99.90;;;;;;5073775;28;20495;-72
2022/12/02 01:22:08;;;;;;;82.82;40.40;;;5.50;99.90;;;;;;5073878;28;20131;-72
2022/12/02 01:24:34;;;;;;;83.63;39.38;;;5.40;99.90;;;;;;5057051;28;20036;-73
2022/12/02 01:26:59;;;;;;;85.55;40.65;;;5.60;99.90;;;;;;5074710;28;20099;-73
2022/12/02 01:29:25;;;;;;;79.65;39.83;;;5.60;99.90;;;;;;5075123;28;20036;-72
2022/12/02 01:31:51;;;;;;;76.65;39.75;;;5.60;99.90;;;;;;5074652;28;20028;-70
2022/12/02 01:34:16;;;;;;;80.75;40.97;;;5.70;99.90;;;;;;5073711;28;20118;-72
2022/12/02 01:36:42;;;;;;;81.18;40.13;;;5.70;99.90;;;;;;5073360;28;20063;-72
2022/12/02 01:39:08;;;;;;;82.65;40.28;;;6.00;99.90;;;;;;5074660;28;20050;-73
2022/12/02 01:41:34;;;;;;;87.88;43.22;;;6.00;99.90;;;;;;5073241;28;20560;-72
2022/12/02 01:44:00;;;;;;;84.20;41.40;;;6.20;99.90;;;;;;5073245;28;20052;-72
2022/12/02 01:46:25;;;;;;;90.07;44.20;;;6.40;99.90;;;;;;5074474;28;20020;-72
2022/12/02 01:48:52;;;;;;;93.40;44.17;;;6.40;99.90;;;;;;5074935;28;20060;-72
2022/12/02 01:51:18;;;;;;;90.93;42.83;;;6.60;99.90;;;;;;5073551;28;20024;-72
2022/12/02 01:53:45;;;;;;;88.70;44.78;;;6.70;99.90;;;;;;5073177;28;20484;-72
2022/12/02 01:56:11;;;;;;;83.25;43.38;;;6.50;99.90;;;;;;5074100;28;20020;-72
2022/12/02 01:58:37;;;;;;;88.22;44.47;;;6.30;99.90;;;;;;5073284;28;20118;-72
2022/12/02 02:01:20;;;;;;;103.10;43.38;;;6.30;99.90;;;;;;5073115;28;20029;-72
2022/12/02 02:03:46;;;;;;;95.65;44.40;;;6.10;99.90;;;;;;5074117;28;20101;-72
2022/12/02 02:06:11;;;;;;;90.75;42.00;;;6.20;99.90;;;;;;5056904;28;20464;-73
2022/12/02 02:08:37;;;;;;;98.32;42.58;;;6.20;99.90;;;;;;5072984;28;20184;-73
2022/12/02 02:11:03;;;;;;;86.85;41.58;;;6.10;99.90;;;;;;5074299;28;20465;-72
2022/12/02 02:13:29;;;;;;;79.70;41.45;;;6.20;99.90;;;;;;5056305;28;20032;-72
2022/12/02 02:15:54;;;;;;;84.70;41.47;;;6.30;99.90;;;;;;5072603;28;20036;-72
2022/12/02 02:18:20;;;;;;;89.32;41.75;;;6.30;99.90;;;;;;5072651;28;20033;-72
2022/12/02 02:20:46;;;;;;;80.10;39.88;;;6.50;99.90;;;;;;5056306;28;20104;-72
2022/12/02 02:23:23;;;;;;;91.03;42.33;;;6.50;99.90;;;;;;5072085;28;20078;-72
2022/12/02 02:25:54;;;;;;;84.57;41.20;;;6.70;99.90;;;;;;5072587;28;20025;-72
2022/12/02 02:28:23;;;;;;;87.15;42.13;;;6.50;99.90;;;;;;5072331;28;20021;-72
2022/12/02 02:30:52;;;;;;;87.75;43.95;;;6.50;99.90;;;;;;5071738;28;20070;-72
2022/12/02 02:33:20;;;;;;;86.40;42.58;;;6.70;99.90;;;;;;5073531;28;20024;-72
2022/12/02 02:35:46;;;;;;;82.22;41.25;;;6.70;99.90;;;;;;5072309;28;20033;-72
2022/12/02 02:38:21;;;;;;;91.72;42.78;;;6.70;99.90;;;;;;5071979;28;20028;-72
2022/12/02 02:40:48;;;;;;;84.82;41.28;;;6.50;99.90;;;;;;5082314;28;20047;-72
2022/12/02 02:43:17;;;;;;;82.00;42.25;;;6.50;99.90;;;;;;5092238;28;20081;-72
2022/12/02 02:45:43;;;;;;;84.25;40.45;;;6.60;99.90;;;;;;5092277;28;20149;-72
2022/12/02 02:48:12;;;;;;;84.47;40.50;;;6.60;99.90;;;;;;5092286;28;20020;-72
2022/12/02 02:50:41;;;;;;;85.65;42.95;;;6.70;99.90;;;;;;5093646;28;20028;-72
2022/12/02 02:53:08;;;;;;;82.50;41.67;;;6.90;99.90;;;;;;5075253;28;20031;-72
2022/12/02 02:55:34;;;;;;;93.18;43.60;;;7.00;99.90;;;;;;5093363;28;20103;-72
2022/12/02 02:58:13;;;;;;;85.35;42.90;;;6.90;99.90;;;;;;5092200;28;20059;-72
2022/12/02 03:00:45;;;;;;;87.25;42.47;;;6.90;99.90;;;;;;5092316;28;20020;-72
2022/12/02 03:03:14;;;;;;;97.90;42.33;;;6.90;99.90;;;;;;5093259;28;20024;-72
2022/12/02 03:05:40;;;;;;;88.13;42.83;;;6.90;99.90;;;;;;5092258;28;20036;-73
2022/12/02 03:08:08;;;;;;;99.03;44.13;;;6.70;99.90;;;;;;5091986;28;20440;-72
2022/12/02 03:10:34;;;;;;;93.90;45.47;;;6.50;99.90;;;;;;5075072;28;20028;-73
2022/12/02 03:13:00;;;;;;;99.68;43.25;;;6.40;99.90;;;;;;5093641;28;20020;-72
2022/12/02 03:15:28;;;;;;;89.25;42.45;;;6.50;99.90;;;;;;5092792;28;20050;-72
2022/12/02 03:17:55;;;;;;;97.13;43.67;;;6.40;99.90;;;;;;5093245;28;20060;-72
2022/12/02 03:20:22;;;;;;;95.45;44.33;;;6.60;99.90;;;;;;5091875;28;20106;-72
2022/12/02 03:22:48;;;;;;;95.07;43.38;;;6.70;99.90;;;;;;5092844;28;20028;-72
2022/12/02 03:25:14;;;;;;;96.97;43.95;;;6.50;99.90;;;;;;5092841;28;20020;-72
2022/12/02 03:27:40;;;;;;;96.38;44.10;;;6.50;99.90;;;;;;5093306;28;20032;-72
2022/12/02 03:30:07;;;;;;;93.45;42.45;;;6.50;99.90;;;;;;5091670;28;20024;-72
2022/12/02 03:32:33;;;;;;;92.93;44.22;;;6.80;99.90;;;;;;5092995;28;20093;-72
2022/12/02 03:35:00;;;;;;;90.25;42.63;;;6.60;99.90;;;;;;5092932;28;20077;-72
2022/12/02 03:37:26;;;;;;;92.45;45.03;;;6.70;99.90;;;;;;5092711;28;20131;-72
2022/12/02 03:39:52;;;;;;;91.30;46.25;;;6.60;99.90;;;;;;5092606;28;20095;-72
2022/12/02 03:42:19;;;;;;;99.03;46.08;;;6.70;99.90;;;;;;5092756;28;20110;-72
2022/12/02 03:44:45;;;;;;;98.55;45.65;;;6.90;99.90;;;;;;5092716;28;20463;-72
2022/12/02 03:47:11;;;;;;;101.07;46.63;;;6.90;99.90;;;;;;5092806;28;20116;-72
2022/12/02 03:49:37;;;;;;;98.53;46.55;;;7.00;99.90;;;;;;5092535;28;20099;-72
2022/12/02 03:52:03;;;;;;;99.45;46.33;;;6.90;99.90;;;;;;5091450;28;20111;-72
2022/12/02 03:54:29;;;;;;;98.97;46.63;;;6.70;99.90;;;;;;5092486;28;20112;-72
2022/12/02 03:56:55;;;;;;;88.32;44.38;;;6.50;99.90;;;;;;5091550;28;20032;-72
2022/12/02 03:59:26;;;;;;;104.75;48.60;;;6.50;99.90;;;;;;5092632;28;20024;-72
2022/12/02 04:01:52;;;;;;;102.10;46.75;;;6.60;99.90;;;;;;5092889;28;20036;-72
2022/12/02 04:04:17;;;;;;;104.80;47.80;;;6.70;99.90;;;;;;5092568;28;20046;-73
2022/12/02 04:06:43;;;;;;;98.25;45.10;;;6.70;99.90;;;;;;5092579;28;20111;-72
2022/12/02 04:09:09;;;;;;;100.97;46.97;;;6.50;99.90;;;;;;5092694;28;20035;-72
2022/12/02 04:11:35;;;;;;;107.78;49.13;;;6.60;99.90;;;;;;5091141;28;20040;-72
2022/12/02 04:14:00;;;;;;;102.22;46.80;;;6.80;99.90;;;;;;5092741;28;20114;-72
2022/12/02 04:16:26;;;;;;;101.57;48.72;;;6.90;99.90;;;;;;5092385;28;20081;-73
2022/12/02 04:18:52;;;;;;;104.93;48.90;;;6.90;99.90;;;;;;5092466;28;20028;-73
2022/12/02 04:21:17;;;;;;;112.63;50.67;;;6.90;99.90;;;;;;5092687;28;20016;-72
2022/12/02 04:23:43;;;;;;;111.18;48.58;;;7.10;99.90;;;;;;5092245;28;20472;-72
2022/12/02 04:26:09;;;;;;;102.50;47.25;;;6.90;99.90;;;;;;5092586;28;20479;-72
2022/12/02 04:28:35;;;;;;;116.30;49.65;;;6.90;99.90;;;;;;5092566;28;20032;-73
2022/12/02 04:31:01;;;;;;;114.57;50.75;;;6.90;99.90;;;;;;5092635;28;20077;-72
2022/12/02 04:33:26;;;;;;;108.40;51.22;;;6.90;99.90;;;;;;5090953;28;20028;-73
2022/12/02 04:35:52;;;;;;;101.00;47.42;;;7.00;99.90;;;;;;5092260;28;20089;-72
2022/12/02 04:38:18;;;;;;;109.72;51.60;;;6.80;99.90;;;;;;5092369;28;20020;-72
2022/12/02 04:40:44;;;;;;;113.80;48.40;;;6.80;99.90;;;;;;5092205;28;20085;-72
2022/12/02 04:43:09;;;;;;;121.80;50.90;;;6.70;99.90;;;;;;5093498;28;20128;-73
2022/12/02 04:45:35;;;;;;;108.00;48.65;;;6.70;99.90;;;;;;5092033;28;20093;-72
2022/12/02 04:48:01;;;;;;;118.88;50.90;;;6.70;99.90;;;;;;5091943;28;20028;-73
2022/12/02 04:50:27;;;;;;;107.82;51.65;;;6.80;99.90;;;;;;5092218;28;20020;-72
2022/12/02 04:52:52;;;;;;;120.35;50.40;;;6.90;99.90;;;;;;5093107;28;20028;-73
2022/12/02 04:55:18;;;;;;;119.32;51.97;;;7.00;99.90;;;;;;5094706;28;20123;-72
2022/12/02 04:57:44;;;;;;;107.55;50.17;;;6.90;99.90;;;;;;5094556;28;20032;-72
2022/12/02 05:00:11;;;;;;;117.97;51.55;;;6.70;99.90;;;;;;5095794;28;20070;-72
2022/12/02 05:02:37;;;;;;;117.57;52.67;;;6.70;99.90;;;;;;5095478;28;20016;-72
2022/12/02 05:05:03;;;;;;;116.57;54.15;;;6.80;99.90;;;;;;5094398;28;20039;-72
2022/12/02 05:07:28;;;;;;;115.50;53.28;;;6.90;99.90;;;;;;5095520;28;20036;-72
2022/12/02 05:09:54;;;;;;;130.43;55.15;;;6.70;99.90;;;;;;5094365;28;20039;-72
2022/12/02 05:12:20;;;;;;;118.80;53.17;;;6.80;99.90;;;;;;5095629;28;20370;-72
2022/12/02 05:14:46;;;;;;;116.47;52.35;;;6.80;99.90;;;;;;5094380;28;20645;-72
2022/12/02 05:17:12;;;;;;;115.05;52.83;;;7.00;99.90;;;;;;5094001;28;20464;-72
2022/12/02 05:19:37;;;;;;;116.13;51.58;;;6.90;99.90;;;;;;5095547;28;20115;-72
2022/12/02 05:22:03;;;;;;;117.63;51.55;;;6.80;99.90;;;;;;5095005;28;20038;-72
2022/12/02 05:24:29;;;;;;;113.85;52.58;;;6.80;99.90;;;;;;5095227;28;20050;-72
2022/12/02 05:26:55;;;;;;;121.53;52.72;;;6.60;99.90;;;;;;5095321;28;20034;-71
2022/12/02 05:29:20;;;;;;;123.18;56.10;;;6.60;99.90;;;;;;5094261;28;20575;-71
2022/12/02 05:31:46;;;;;;;124.88;54.90;;;6.60;99.90;;;;;;5094678;28;20495;-72
2022/12/02 05:34:12;;;;;;;122.50;53.10;;;6.70;99.90;;;;;;5095044;28;20028;-72
2022/12/02 05:36:38;;;;;;;117.05;54.13;;;6.90;99.90;;;;;;5064109;28;20035;-72
2022/12/02 05:39:03;;;;;;;118.32;52.03;;;6.70;99.90;;;;;;5093747;28;20024;-71
2022/12/02 05:41:29;;;;;;;119.03;53.55;;;6.60;99.90;;;;;;5094933;28;20024;-72
2022/12/02 05:43:58;;;;;;;110.57;51.30;;;6.50;99.90;;;;;;5094814;28;20047;-72
2022/12/02 05:46:25;;;;;;;110.00;48.33;;;6.30;99.90;;;;;;5093398;28;20393;-72
2022/12/02 05:48:51;;;;;;;119.15;51.45;;;6.40;99.90;;;;;;5094496;28;20028;-72
2022/12/02 05:51:20;;;;;;;124.72;53.35;;;6.30;99.90;;;;;;5094665;28;20038;-72
2022/12/02 05:53:48;;;;;;;120.22;52.38;;;6.20;99.90;;;;;;5094689;28;20028;-72
2022/12/02 05:56:24;;;;;;;120.53;53.35;;;6.10;99.90;;;;;;5094671;28;20494;-72
2022/12/02 05:58:50;;;;;;;132.38;54.80;;;6.20;99.90;;;;;;5094730;28;20058;-71
2022/12/02 06:01:25;;;;;;;126.50;53.45;;;6.20;99.90;;;;;;5094130;28;20032;-72
2022/12/02 06:03:51;;;;;;;134.35;54.38;;;6.00;99.90;;;;;;5094272;28;20125;-72
2022/12/02 06:06:23;;;;;;;143.20;55.95;;;6.10;99.90;;;;;;5093075;28;20048;-71
2022/12/02 06:08:48;;;;;;;150.52;57.08;;;6.00;99.90;;;;;;5094545;28;20043;-72
2022/12/02 06:11:33;;;;;;;144.05;57.60;;;6.00;99.90;;;;;;5094378;28;20024;-72
2022/12/02 06:14:02;;;;;;;157.80;56.42;;;5.90;99.90;;;;;;5092871;28;20067;-72
2022/12/02 06:16:30;;;;;;;157.18;55.25;;;6.00;99.90;;;;;;5092646;28;20419;-72
2022/12/02 06:18:59;;;;;;;147.27;52.55;;;5.90;99.90;;;;;;5094255;28;20067;-71
2022/12/02 06:21:26;;;;;;;142.52;53.50;;;5.70;99.90;;;;;;5094488;28;20028;-71
2022/12/02 06:23:56;;;;;;;133.20;51.47;;;5.90;99.90;;;;;;5093692;28;20024;-72
2022/12/02 06:26:21;;;;;;;146.50;52.83;;;6.00;99.90;;;;;;5094198;28;20121;-71
2022/12/02 06:28:51;;;;;;;178.35;58.50;;;6.00;99.90;;;;;;5092708;28;20032;-71
2022/12/02 06:31:22;;;;;;;170.88;58.58;;;6.00;99.90;;;;;;5093885;28;20455;-72
2022/12/02 06:33:51;;;;;;;161.18;56.53;;;6.10;99.90;;;;;;5093695;28;20020;-72
2022/12/02 06:36:23;;;;;;;172.40;58.45;;;6.10;99.90;;;;;;5093954;28;20095;-71
2022/12/02 06:38:56;;;;;;;166.90;57.72;;;6.10;99.90;;;;;;5093569;28;20111;-72
2022/12/02 06:41:25;;;;;;;132.48;46.97;;;6.20;99.90;;;;;;5093733;28;20460;-71
2022/12/02 06:47:19;;;;;;;103.15;41.13;;;5.80;99.90;;;;;;5064363;28;20047;-72
2022/12/02 06:49:45;;;;;;;105.70;41.55;;;5.80;99.90;;;;;;5087882;28;20042;-72
2022/12/02 06:52:21;;;;;;;100.82;40.60;;;5.70;99.90;;;;;;5077293;28;20013;-72
2022/12/02 06:54:46;;;;;;;103.85;40.83;;;5.80;99.90;;;;;;5079347;28;20077;-72
2022/12/02 06:57:17;;;;;;;97.15;38.60;;;5.70;99.90;;;;;;5079643;28;20032;-72
2022/12/02 06:59:47;;;;;;;110.57;41.00;;;5.60;99.90;;;;;;5082041;28;20123;-72
2022/12/02 07:02:27;;;;;;;103.40;41.80;;;5.60;99.90;;;;;;5091267;28;20100;-72
2022/12/02 07:04:54;;;;;;;100.53;37.72;;;5.50;99.90;;;;;;5079240;28;20046;-72
2022/12/02 07:07:27;;;;;;;90.05;37.47;;;5.50;99.90;;;;;;5078639;28;20043;-72
2022/12/02 07:09:56;;;;;;;94.82;39.13;;;5.50;99.90;;;;;;5082064;28;20430;-72
2022/12/02 07:12:28;;;;;;;92.78;37.47;;;5.50;99.90;;;;;;5089325;28;20461;-72
2022/12/02 07:14:56;;;;;;;93.55;38.20;;;5.50;99.90;;;;;;5069562;28;20032;-72
2022/12/02 07:17:37;;;;;;;97.80;40.72;;;5.50;99.90;;;;;;5065388;28;20377;-73
2022/12/02 07:20:05;;;;;;;107.57;41.55;;;5.50;99.90;;;;;;5081022;28;20422;-73
2022/12/02 07:22:43;;;;;;;100.72;39.53;;;5.50;99.90;;;;;;5087861;28;20567;-73
2022/12/02 07:25:09;;;;;;;108.93;43.03;;;5.60;99.90;;;;;;5086480;28;20055;-73
2022/12/02 07:27:38;;;;;;;112.22;43.42;;;5.50;99.90;;;;;;5074897;28;20021;-73
2022/12/02 07:30:23;;;;;;;118.95;44.15;;;5.50;99.90;;;;;;5077565;28;20025;-73
2022/12/02 07:32:49;;;;;;;113.88;45.47;;;5.50;99.90;;;;;;5085841;28;20518;-73
2022/12/02 07:35:14;;;;;;;128.40;48.42;;;5.40;99.90;;;;;;5086748;28;20028;-72
2022/12/02 07:37:40;;;;;;;118.35;46.47;;;5.70;99.90;;;;;;5086077;28;20020;-70
2022/12/02 07:40:06;;;;;;;128.02;49.35;;;5.90;99.90;;;;;;5075278;28;20535;-72
2022/12/02 07:42:33;;;;;;;119.60;47.72;;;6.10;99.90;;;;;;5081733;28;20074;-73
2022/12/02 07:44:58;;;;;;;127.18;47.55;;;5.90;99.90;;;;;;5085633;28;20488;-73
2022/12/02 07:47:24;;;;;;;124.63;50.45;;;6.00;99.90;;;;;;5088734;28;20437;-72
2022/12/02 07:49:50;;;;;;;149.50;54.60;;;6.00;99.90;;;;;;5089707;28;20032;-72
2022/12/02 07:52:15;;;;;;;131.27;49.40;;;5.90;99.90;;;;;;5080696;28;20473;-73
2022/12/02 07:54:41;;;;;;;127.70;47.88;;;6.00;99.90;;;;;;5077775;28;20039;-73
2022/12/02 07:57:07;;;;;;;130.80;49.05;;;5.90;99.90;;;;;;5081447;28;20028;-72
2022/12/02 07:59:32;;;;;;;126.70;47.92;;;5.80;99.90;;;;;;5083294;28;20435;-72
2022/12/02 08:01:58;;;;;;;119.20;46.83;;;5.70;99.90;;;;;;5090522;28;20028;-72
2022/12/02 08:04:24;;;;;;;125.50;48.13;;;5.60;99.90;;;;;;5077797;28;20035;-72
2022/12/02 08:06:50;;;;;;;123.55;49.38;;;5.60;99.90;;;;;;5080195;28;20031;-73
2022/12/02 08:09:16;;;;;;;105.18;42.58;;;5.70;99.90;;;;;;5080655;28;20032;-72
2022/12/02 08:11:41;;;;;;;124.60;48.85;;;5.90;99.90;;;;;;5073046;28;20081;-72
2022/12/02 08:14:07;;;;;;;112.50;44.95;;;5.90;99.90;;;;;;5077433;28;20025;-73
2022/12/02 08:16:33;;;;;;;95.90;41.13;;;5.80;99.90;;;;;;5070118;28;20024;-73
2022/12/02 08:19:00;;;;;;;96.35;39.85;;;5.90;99.90;;;;;;5081630;28;20050;-73
2022/12/02 08:21:27;;;;;;;95.00;37.80;;;5.80;99.90;;;;;;5080963;28;20135;-72
2022/12/02 08:23:53;;;;;;;109.10;42.25;;;5.70;99.90;;;;;;5088836;28;20040;-73
2022/12/02 08:26:19;;;;;;;111.70;44.92;;;5.90;99.90;;;;;;5079696;28;20040;-73
2022/12/02 08:28:44;;;;;;;111.35;46.50;;;5.90;99.90;;;;;;5080466;28;20383;-73
2022/12/02 08:31:10;;;;;;;104.18;45.75;;;5.80;99.90;;;;;;5084478;28;20032;-72
2022/12/02 08:33:36;;;;;;;128.50;46.92;;;5.60;99.90;;;;;;5086867;28;20031;-72
2022/12/02 08:36:03;;;;;;;111.53;44.03;;;5.40;99.90;;;;;;5094012;28;20044;-72
2022/12/02 08:38:29;;;;;;;99.53;41.33;;;5.60;99.90;;;;;;5093619;28;20110;-73
2022/12/02 08:40:54;;;;;;;98.32;41.33;;;5.30;99.90;;;;;;5095505;28;20502;-73
2022/12/02 08:43:20;;;;;;;96.93;39.78;;;5.10;99.90;;;;;;5095714;28;20108;-73
2022/12/02 08:45:46;;;;;;;98.82;41.35;;;5.00;99.90;;;;;;5094106;28;20036;-73
2022/12/02 08:48:12;;;;;;;85.43;39.38;;;5.00;99.90;;;;;;5095544;28;20048;-73
2022/12/02 08:50:37;;;;;;;89.07;36.17;;;5.00;99.90;;;;;;5095903;28;20020;-73
2022/12/02 08:53:03;;;;;;;87.63;37.53;;;5.10;99.90;;;;;;5094869;28;20385;-73
2022/12/02 08:55:29;;;;;;;91.68;36.63;;;5.20;99.90;;;;;;5064352;28;20032;-73
2022/12/02 08:57:55;;;;;;;93.68;36.10;;;5.20;99.90;;;;;;5074667;28;20036;-72
2022/12/02 09:00:21;;;;;;;76.70;32.70;;;5.00;99.90;;;;;;5073000;28;20028;-73
2022/12/02 09:02:47;;;;;;;94.20;34.67;;;5.20;99.90;;;;;;5073989;28;20029;-73
2022/12/02 09:05:14;;;;;;;89.90;33.80;;;5.20;99.90;;;;;;5074358;28;20028;-73
2022/12/02 09:07:40;;;;;;;87.05;31.77;;;5.20;99.90;;;;;;5074340;28;20029;-73
2022/12/02 09:10:10;;;;;;;96.70;35.30;;;5.30;99.90;;;;;;5074239;28;20078;-73
2022/12/02 09:12:35;;;;;;;89.55;35.05;;;5.50;99.90;;;;;;5070968;28;20025;-72
2022/12/02 09:15:01;;;;;;;86.32;37.67;;;5.80;99.90;;;;;;5074455;28;20043;-71
2022/12/02 09:17:27;;;;;;;86.38;35.03;;;5.40;99.90;;;;;;5074338;28;20028;-72
2022/12/02 09:19:53;;;;;;;82.80;34.22;;;5.30;99.90;;;;;;5074098;28;20457;-72
2022/12/02 09:22:19;;;;;;;95.15;36.00;;;5.00;99.90;;;;;;5074257;28;20503;-72
2022/12/02 09:24:44;;;;;;;98.60;35.63;;;5.30;99.90;;;;;;5072623;28;20072;-72
2022/12/02 09:27:10;;;;;;;96.30;38.63;;;5.70;99.90;;;;;;5074091;28;20043;-71
2022/12/02 09:29:36;;;;;;;106.40;39.33;;;5.70;99.90;;;;;;5073704;28;20032;-71
2022/12/02 09:32:02;;;;;;;98.18;40.03;;;5.80;99.90;;;;;;5073978;28;20484;-72
2022/12/02 09:34:27;;;;;;;96.28;38.45;;;5.60;99.90;;;;;;5073894;28;20045;-72
2022/12/02 09:36:53;;;;;;;99.55;39.85;;;5.50;99.90;;;;;;5073607;28;20074;-72
2022/12/02 09:39:19;;;;;;;93.03;36.33;;;5.50;99.90;;;;;;5073218;28;20447;-72
2022/12/02 09:41:45;;;;;;;91.38;35.88;;;5.40;99.90;;;;;;5073989;28;20037;-72
2022/12/02 09:44:10;;;;;;;69.40;29.45;;;5.60;99.90;;;;;;5073622;28;20040;-72
2022/12/02 09:46:37;;;;;;;80.35;30.48;;;5.60;99.90;;;;;;5073544;28;20024;-72
2022/12/02 09:49:03;;;;;;;69.57;30.88;;;5.40;99.90;;;;;;5078961;28;20033;-72
2022/12/02 09:51:29;;;;;;;84.90;31.15;;;5.30;99.90;;;;;;5086403;28;20028;-72
2022/12/02 09:53:56;;;;;;;78.15;32.20;;;5.30;99.90;;;;;;5076056;28;20031;-72
2022/12/02 09:56:22;;;;;;;78.13;30.92;;;5.50;99.90;;;;;;5087509;28;20020;-72
2022/12/02 09:58:53;;;;;;;72.22;31.42;;;5.50;99.90;;;;;;5069987;28;20029;-72
2022/12/02 10:01:21;;;;;;;67.63;28.63;;;5.60;99.90;;;;;;5072436;28;20373;-71
2022/12/02 10:03:49;;;;;;;72.85;30.90;;;5.60;99.90;;;;;;5072494;28;20459;-72
2022/12/02 10:06:21;;;;;;;73.55;30.67;;;5.40;99.90;;;;;;5073315;28;20060;-72
2022/12/02 10:08:47;;;;;;;82.43;33.30;;;5.40;99.90;;;;;;5072048;28;20031;-72
2022/12/02 10:11:23;;;;;;;95.40;34.67;;;5.50;99.90;;;;;;5068459;28;20025;-72
2022/12/02 10:13:49;;;;;;;81.40;31.50;;;5.30;99.90;;;;;;5071530;28;20032;-72
2022/12/02 10:16:15;;;;;;;74.43;30.98;;;5.20;99.90;;;;;;5072978;28;20036;-72
2022/12/02 10:18:41;;;;;;;81.72;34.10;;;5.20;99.90;;;;;;5073023;28;20032;-72
2022/12/02 10:21:07;;;;;;;78.68;30.63;;;5.10;99.90;;;;;;5073127;28;20056;-72
2022/12/02 10:23:41;;;;;;;75.25;31.33;;;5.10;99.90;;;;;;5070856;28;20165;-72
2022/12/02 10:26:13;;;;;;;78.75;31.23;;;5.10;99.90;;;;;;5066492;28;20381;-72
2022/12/02 10:28:40;;;;;;;86.03;31.57;;;5.30;99.90;;;;;;5070066;28;20452;-73
2022/12/02 10:31:11;;;;;;;71.88;30.00;;;5.50;99.90;;;;;;5072613;28;20278;-72
2022/12/02 10:33:40;;;;;;;85.22;35.33;;;5.70;99.90;;;;;;5071309;28;20503;-72
2022/12/02 10:36:07;;;;;;;69.05;30.83;;;5.70;99.90;;;;;;5072208;28;20048;-72
2022/12/02 10:38:42;;;;;;;79.90;30.63;;;5.70;99.90;;;;;;5067140;28;20472;-72
2022/12/02 10:41:14;;;;;;;70.03;28.55;;;5.60;99.90;;;;;;5072564;28;20024;-72
2022/12/02 10:43:42;;;;;;;62.40;27.30;;;5.50;99.90;;;;;;5071861;28;20044;-72
2022/12/02 10:46:13;;;;;;;58.72;24.30;;;5.40;99.90;;;;;;5072230;28;20048;-72
2022/12/02 10:48:40;;;;;;;57.72;24.52;;;5.50;99.90;;;;;;5076564;28;20124;-72
2022/12/02 10:51:18;;;;;;;65.93;26.67;;;5.60;99.90;;;;;;5080987;28;20074;-72
2022/12/02 10:53:48;;;;;;;59.78;23.63;;;5.70;99.90;;;;;;5063882;28;20048;-71
2022/12/02 10:56:19;;;;;;;73.10;30.58;;;5.60;99.90;;;;;;5085003;28;20028;-72
2022/12/02 10:58:47;;;;;;;48.13;23.83;;;5.70;99.90;;;;;;5076317;28;20354;-72
2022/12/02 11:01:13;;;;;;;64.05;28.60;;;5.60;99.90;;;;;;5077967;28;20039;-72
2022/12/02 11:03:39;;;;;;;59.72;27.45;;;5.60;99.90;;;;;;5086714;28;20032;-72
2022/12/02 11:06:16;;;;;;;52.75;23.73;;;5.60;99.90;;;;;;5087956;28;20119;-73
2022/12/02 11:08:43;;;;;;;47.63;21.80;;;5.50;99.90;;;;;;5073846;28;20585;-73
2022/12/02 11:11:24;;;;;;;50.45;23.83;;;5.70;99.90;;;;;;5076831;28;20090;-72
2022/12/02 11:13:58;;;;;;;49.95;24.65;;;5.70;99.90;;;;;;5086599;28;20028;-73
2022/12/02 11:16:26;;;;;;;52.97;24.42;;;5.80;99.90;;;;;;5084952;28;20384;-72
2022/12/02 11:19:07;;;;;;;51.05;23.45;;;5.80;99.90;;;;;;5084289;28;20524;-72
2022/12/02 11:21:43;;;;;;;48.00;23.88;;;5.70;99.90;;;;;;5076473;28;20033;-72
2022/12/02 11:24:26;;;;;;;58.65;25.17;;;5.70;99.90;;;;;;5072727;28;20686;-72
2022/12/02 11:26:58;;;;;;;49.75;24.00;;;5.80;99.90;;;;;;5065971;28;20032;-72
2022/12/02 11:29:34;;;;;;;49.55;23.40;;;5.50;99.90;;;;;;5062309;28;20032;-72
2022/12/02 11:32:21;;;;;;;51.55;24.08;;;5.60;99.90;;;;;;5072060;28;20035;-72
2022/12/02 11:34:51;;;;;;;45.58;24.40;;;5.70;99.90;;;;;;5062417;28;20115;-72
2022/12/02 11:37:28;;;;;;;50.08;23.30;;;5.40;99.90;;;;;;5064459;28;20047;-72
2022/12/02 11:39:59;;;;;;;53.35;25.38;;;5.50;99.90;;;;;;5071828;28;20047;-72
2022/12/02 11:42:27;;;;;;;53.00;24.98;;;5.60;99.90;;;;;;5070056;28;20039;-72
2022/12/02 11:45:09;;;;;;;52.50;24.63;;;5.50;99.90;;;;;;5070474;28;20500;-72
2022/12/02 11:47:35;;;;;;;51.17;25.08;;;5.50;99.90;;;;;;5072900;28;20155;-73
2022/12/02 11:50:16;;;;;;;51.42;25.20;;;5.40;99.90;;;;;;5082393;28;20073;-72
2022/12/02 11:52:49;;;;;;;54.28;25.48;;;5.40;99.90;;;;;;5065855;28;20029;-73
2022/12/02 11:55:19;;;;;;;49.28;23.40;;;5.30;99.90;;;;;;5072885;28;20032;-73
2022/12/02 11:57:53;;;;;;;44.95;21.30;;;5.30;99.90;;;;;;5078021;28;20090;-72
2022/12/02 12:00:32;;;;;;;46.88;22.40;;;5.30;99.90;;;;;;5078186;28;20032;-72
2022/12/02 12:03:18;;;;;;;47.15;21.65;;;5.30;99.90;;;;;;5084227;28;20029;-72
2022/12/02 12:06:06;;;;;;;50.55;21.02;;;5.40;99.90;;;;;;5075709;28;20032;-73
2022/12/02 12:08:31;;;;;;;47.90;21.50;;;5.20;99.90;;;;;;5094595;28;20028;-72
2022/12/02 12:11:21;;;;;;;47.60;23.35;;;5.30;99.90;;;;;;5075242;28;20048;-72
2022/12/02 12:14:11;;;;;;;51.25;24.73;;;5.40;99.90;;;;;;5063419;28;20036;-74
2022/12/02 12:16:41;;;;;;;54.15;25.00;;;5.30;99.90;;;;;;5074626;28;20036;-73
2022/12/02 12:19:14;;;;;;;51.28;23.95;;;5.50;99.90;;;;;;5074944;28;20028;-73
2022/12/02 12:21:44;;;;;;;56.80;24.65;;;5.30;99.90;;;;;;5078590;28;20032;-73
2022/12/02 12:24:17;;;;;;;50.13;24.10;;;5.20;99.90;;;;;;5074821;28;20035;-73
2022/12/02 12:26:57;;;;;;;45.92;22.40;;;5.40;99.90;;;;;;5075866;28;20032;-73
2022/12/02 12:29:35;;;;;;;51.92;22.52;;;5.30;99.90;;;;;;5076021;28;20112;-73
2022/12/02 12:32:01;;;;;;;52.50;22.67;;;5.30;99.90;;;;;;5075614;28;20508;-73
2022/12/02 12:34:30;;;;;;;49.97;23.90;;;5.40;99.90;;;;;;5075830;28;20067;-73
2022/12/02 12:36:56;;;;;;;54.92;23.08;;;5.50;99.90;;;;;;5075526;28;20036;-73
2022/12/02 12:39:22;;;;;;;49.63;25.45;;;5.50;99.90;;;;;;5075678;28;20024;-73
2022/12/02 12:41:48;;;;;;;46.67;23.08;;;5.60;99.90;;;;;;5074524;28;20043;-72
2022/12/02 12:44:14;;;;;;;50.75;20.50;;;5.70;99.90;;;;;;5075444;28;20115;-73